Time;durP1;ratioP1;P1;durP2;ratioP2;P2;SDS_P1;SDS_P2;PMS_P1;PMS_P2;Temp;Humidity;BMP_temperature;BMP_pressure;BME280_temperature;BME280_humidity;BME280_pressure;Samples;Min_cycle;Max_cycle;Signal;HPM_P1;HPM_P2
2023/04/18 00:01:43;;;;;;;;;16.00;13.00;;;;;22.65;37.52;101672.53;5077964;27;45564;-71
2023/04/18 00:04:08;;;;;;;;;14.00;13.25;;;;;22.66;37.53;101671.56;5056487;28;45584;-70
2023/04/18 00:06:34;;;;;;;;;15.00;13.00;;;;;22.64;37.19;101676.13;5070370;27;60304;-71
2023/04/18 00:09:00;;;;;;;;;15.50;14.50;;;;;22.66;37.31;101676.91;5081746;27;45347;-70
2023/04/18 00:11:26;;;;;;;;;15.25;12.75;;;;;22.63;37.42;101665.56;5078958;27;45403;-70
2023/04/18 00:13:51;;;;;;;;;14.00;14.00;;;;;22.58;37.51;101660.53;5079220;27;45525;-71
2023/04/18 00:16:17;;;;;;;;;13.25;11.50;;;;;22.65;37.37;101667.19;5078814;27;46094;-71
2023/04/18 00:18:42;;;;;;;;;15.25;14.00;;;;;22.60;37.05;101663.97;5064185;27;66132;-71
2023/04/18 00:21:07;;;;;;;;;15.50;13.75;;;;;22.61;37.26;101660.34;5076070;28;45406;-71
2023/04/18 00:23:34;;;;;;;;;14.00;13.25;;;;;22.63;37.60;101666.44;5076694;27;67111;-71
2023/04/18 00:25:59;;;;;;;;;12.25;11.50;;;;;22.63;37.07;101663.78;5072960;28;47112;-71
2023/04/18 00:28:27;;;;;;;;;18.25;13.25;;;;;22.63;37.10;101669.09;5078712;27;46314;-71
2023/04/18 00:30:52;;;;;;;;;13.00;12.75;;;;;22.59;37.03;101656.88;5079325;27;45345;-70
2023/04/18 00:33:18;;;;;;;;;18.50;14.75;;;;;22.64;36.94;101667.28;5078477;27;59369;-70
2023/04/18 00:35:43;;;;;;;;;13.25;12.25;;;;;22.62;37.67;101661.19;5076966;27;60164;-70
2023/04/18 00:38:08;;;;;;;;;14.50;12.25;;;;;22.63;37.03;101661.09;5077381;27;68860;-71
2023/04/18 00:40:35;;;;;;;;;14.00;13.50;;;;;22.62;36.98;101650.53;5063003;28;45962;-70
2023/04/18 00:43:01;;;;;;;;;18.50;13.25;;;;;22.62;37.42;101653.19;5079786;28;45516;-70
2023/04/18 00:45:26;;;;;;;;;15.50;15.00;;;;;22.59;36.93;101645.38;5075890;27;47839;-70
2023/04/18 00:47:51;;;;;;;;;14.75;13.75;;;;;22.58;36.98;101641.00;5079981;27;61345;-70
2023/04/18 00:50:17;;;;;;;;;14.00;11.50;;;;;22.61;37.42;101646.13;5056574;28;63869;-69
2023/04/18 00:52:43;;;;;;;;;17.00;13.50;;;;;22.57;37.11;101634.78;5079714;27;45459;-70
2023/04/18 00:55:09;;;;;;;;;14.00;12.25;;;;;22.59;37.44;101643.56;5060669;28;48090;-70
2023/04/18 00:57:34;;;;;;;;;13.75;12.50;;;;;22.56;37.22;101639.28;5094313;27;45859;-70
2023/04/18 01:00:00;;;;;;;;;13.50;12.00;;;;;22.59;37.40;101634.69;5073021;27;45564;-71
2023/04/18 01:02:29;;;;;;;;;14.75;12.50;;;;;22.61;36.96;101641.66;5077009;28;45581;-70
2023/04/18 01:04:55;;;;;;;;;18.00;14.25;;;;;22.59;36.93;101635.56;5075805;28;45349;-70
2023/04/18 01:07:20;;;;;;;;;13.25;11.75;;;;;22.60;37.28;101634.59;5078380;27;45485;-70
2023/04/18 01:09:46;;;;;;;;;18.25;15.00;;;;;22.56;37.08;101623.28;5076882;27;45604;-69
2023/04/18 01:12:11;;;;;;;;;16.00;14.00;;;;;22.59;37.08;101638.22;5059980;28;45319;-70
2023/04/18 01:14:41;;;;;;;;;12.75;12.00;;;;;22.58;37.26;101625.00;5063834;28;47125;-70
2023/04/18 01:17:09;;;;;;;;;18.25;14.25;;;;;22.60;36.98;101631.09;5079088;28;45912;-70
2023/04/18 01:19:36;;;;;;;;;14.00;12.50;;;;;22.59;36.78;101629.38;5077304;27;45330;-70
2023/04/18 01:22:02;;;;;;;;;15.50;15.25;;;;;22.59;37.16;101630.22;5078112;27;46037;-70
2023/04/18 01:24:30;;;;;;;;;15.50;14.00;;;;;22.59;37.45;101621.38;5058515;28;48014;-70
2023/04/18 01:26:56;;;;;;;;;15.25;14.75;;;;;22.59;36.90;101616.88;5062583;28;45344;-70
2023/04/18 01:29:22;;;;;;;;;16.75;15.00;;;;;22.53;37.09;101612.78;5083198;27;45480;-70
2023/04/18 01:31:47;;;;;;;;;13.00;12.75;;;;;22.55;37.42;101610.03;5071450;28;45445;-71
2023/04/18 01:34:13;;;;;;;;;13.00;13.00;;;;;22.56;36.94;101601.09;5075552;27;70364;-69
2023/04/18 01:36:39;;;;;;;;;15.75;13.50;;;;;22.54;37.30;101606.50;5058345;28;45598;-71
2023/04/18 01:39:05;;;;;;;;;14.75;13.00;;;;;22.49;37.02;101600.63;5065833;27;45584;-71
2023/04/18 01:41:31;;;;;;;;;13.75;12.00;;;;;22.55;36.84;101610.88;5062572;27;45638;-71
2023/04/18 01:43:57;;;;;;;;;17.50;14.75;;;;;22.57;37.26;101616.13;5078646;27;45451;-71
2023/04/18 01:46:23;;;;;;;;;16.25;13.00;;;;;22.56;37.07;101611.75;5070957;28;45477;-70
2023/04/18 01:48:48;;;;;;;;;14.00;11.00;;;;;22.55;37.24;101607.38;5079689;27;45644;-71
2023/04/18 01:51:13;;;;;;;;;16.50;13.25;;;;;22.52;37.39;101604.88;5074818;28;45364;-71
2023/04/18 01:53:39;;;;;;;;;14.75;14.25;;;;;22.54;37.04;101603.84;5075593;27;64836;-71
2023/04/18 01:56:04;;;;;;;;;16.50;14.00;;;;;22.58;36.69;101611.66;5057965;28;45910;-71
2023/04/18 01:58:29;;;;;;;;;17.25;14.75;;;;;22.53;37.38;101610.13;5074731;27;45229;-71
2023/04/18 02:00:56;;;;;;;;;17.25;13.50;;;;;22.53;37.00;101602.13;5077561;27;58914;-71
2023/04/18 02:03:22;;;;;;;;;13.75;13.75;;;;;22.55;37.18;101610.03;5062015;28;47354;-71
2023/04/18 02:05:47;;;;;;;;;15.00;13.50;;;;;22.55;36.89;101608.22;5078315;27;45733;-71
2023/04/18 02:08:13;;;;;;;;;13.25;12.25;;;;;22.55;37.24;101607.38;5075483;27;45574;-70
2023/04/18 02:10:39;;;;;;;;;15.00;13.25;;;;;22.55;36.95;101605.53;5073274;27;45431;-71
2023/04/18 02:13:05;;;;;;;;;16.75;14.50;;;;;22.52;36.87;101603.09;5078108;27;46054;-71
2023/04/18 02:15:31;;;;;;;;;19.00;15.25;;;;;22.49;37.42;101597.09;5075086;27;45470;-70
2023/04/18 02:17:58;;;;;;;;;19.50;14.50;;;;;22.49;36.69;101594.44;5073626;27;45361;-70
2023/04/18 02:20:25;;;;;;;;;18.75;13.00;;;;;22.49;36.97;101594.44;5059923;27;45500;-71
2023/04/18 02:22:50;;;;;;;;;15.25;14.25;;;;;22.55;36.71;101599.34;5083519;27;46180;-70
2023/04/18 02:25:16;;;;;;;;;15.25;13.75;;;;;22.51;37.42;101597.84;5077532;28;45544;-71
2023/04/18 02:27:41;;;;;;;;;15.25;13.25;;;;;22.52;37.32;101595.09;5078026;27;45387;-70
2023/04/18 02:30:07;;;;;;;;;19.00;13.25;;;;;22.51;37.02;101595.19;5077735;27;60692;-71
2023/04/18 02:32:32;;;;;;;;;16.50;13.00;;;;;22.53;36.92;101595.94;5076727;27;45557;-71
2023/04/18 02:34:57;;;;;;;;;14.75;13.25;;;;;22.51;37.28;101590.69;5075927;27;65677;-70
2023/04/18 02:37:23;;;;;;;;;17.00;16.00;;;;;22.51;37.13;101595.19;5076070;28;45373;-70
2023/04/18 02:39:48;;;;;;;;;14.50;13.50;;;;;22.51;36.90;101590.69;5077241;27;59549;-70
2023/04/18 02:42:13;;;;;;;;;13.50;10.75;;;;;22.52;36.76;101589.75;5074877;28;71455;-71
2023/04/18 02:44:39;;;;;;;;;14.00;13.00;;;;;22.49;36.76;101587.28;5074866;27;67566;-70
2023/04/18 02:47:04;;;;;;;;;13.25;12.00;;;;;22.49;36.62;101587.28;5075770;27;45410;-71
2023/04/18 02:49:29;;;;;;;;;14.75;12.50;;;;;22.49;37.23;101575.75;5075740;27;48003;-70
2023/04/18 02:51:55;;;;;;;;;18.25;13.25;;;;;22.50;37.30;101580.97;5074031;28;45885;-71
2023/04/18 02:54:20;;;;;;;;;18.50;15.25;;;;;22.51;36.94;101582.69;5074229;27;71332;-71
2023/04/18 02:56:46;;;;;;;;;15.00;14.00;;;;;22.49;37.14;101573.94;5075816;27;45378;-71
2023/04/18 02:59:11;;;;;;;;;15.25;12.50;;;;;22.51;36.73;101585.38;5063694;27;45791;-70
2023/04/18 03:01:36;;;;;;;;;16.50;14.00;;;;;22.49;36.93;101579.28;5055003;28;72690;-70
2023/04/18 03:04:02;;;;;;;;;13.75;12.50;;;;;22.48;37.08;101574.03;5078756;27;62962;-70
2023/04/18 03:06:27;;;;;;;;;15.50;14.00;;;;;22.50;37.22;101586.31;5075953;27;45504;-71
2023/04/18 03:08:54;;;;;;;;;17.25;15.25;;;;;22.50;36.79;101578.28;5076850;27;45407;-71
2023/04/18 03:11:20;;;;;;;;;12.25;11.50;;;;;22.49;36.58;101578.44;5052317;28;46346;-71
2023/04/18 03:13:45;;;;;;;;;16.50;15.25;;;;;22.50;37.21;101583.63;5077837;27;45367;-71
2023/04/18 03:16:10;;;;;;;;;14.25;12.50;;;;;22.48;36.99;101579.38;5073118;28;67627;-71
2023/04/18 03:18:36;;;;;;;;;13.50;13.00;;;;;22.48;37.14;101574.88;5075541;27;45442;-70
2023/04/18 03:21:01;;;;;;;;;16.75;12.75;;;;;22.47;36.59;101578.53;5076338;27;45438;-71
2023/04/18 03:23:26;;;;;;;;;16.50;14.25;;;;;22.46;36.84;101568.78;5076421;28;61709;-71
2023/04/18 03:25:52;;;;;;;;;15.25;12.25;;;;;22.48;36.88;101574.88;5075578;27;65736;-71
2023/04/18 03:28:17;;;;;;;;;15.50;15.50;;;;;22.46;36.92;101567.94;5079046;27;71004;-70
2023/04/18 03:30:43;;;;;;;;;20.75;15.25;;;;;22.47;37.01;101578.53;5077807;27;46189;-71
2023/04/18 03:33:08;;;;;;;;;16.25;13.75;;;;;22.45;36.68;101580.44;5076345;27;45353;-71
2023/04/18 03:35:33;;;;;;;;;14.75;13.00;;;;;22.44;36.91;101576.03;5079991;27;45878;-71
2023/04/18 03:37:59;;;;;;;;;14.25;13.50;;;;;22.45;36.56;101574.22;5061954;27;65266;-70
2023/04/18 03:40:24;;;;;;;;;15.25;13.50;;;;;22.46;37.08;101575.94;5078812;27;45461;-71
2023/04/18 03:42:50;;;;;;;;;17.00;14.75;;;;;22.46;36.52;101575.94;5058622;27;45426;-71
2023/04/18 03:45:15;;;;;;;;;16.50;15.00;;;;;22.45;36.71;101577.75;5075844;28;66847;-71
2023/04/18 03:47:40;;;;;;;;;15.25;14.00;;;;;22.45;36.90;101569.75;5080290;27;45391;-71
2023/04/18 03:50:06;;;;;;;;;14.75;13.50;;;;;22.47;37.08;101572.31;5075626;27;56880;-71
2023/04/18 03:52:31;;;;;;;;;14.00;13.25;;;;;22.46;37.00;101573.28;5080959;27;45672;-71
2023/04/18 03:54:57;;;;;;;;;16.50;13.25;;;;;22.43;36.63;101574.31;5081289;27;45532;-71
2023/04/18 03:57:22;;;;;;;;;15.25;12.25;;;;;22.42;37.01;101569.94;5076442;27;53223;-70
2023/04/18 03:59:47;;;;;;;;;12.00;11.75;;;;;22.44;37.03;101569.84;5081225;27;73447;-71
2023/04/18 04:02:13;;;;;;;;;14.00;12.25;;;;;22.44;36.86;101570.72;5079303;27;45417;-71
2023/04/18 04:04:38;;;;;;;;;16.50;14.50;;;;;22.43;36.73;101563.66;5079440;27;64115;-71
2023/04/18 04:07:03;;;;;;;;;14.25;14.00;;;;;22.46;36.93;101562.59;5060860;28;45393;-70
2023/04/18 04:09:29;;;;;;;;;15.75;13.50;;;;;22.45;36.67;101561.75;5083238;27;71813;-71
2023/04/18 04:11:54;;;;;;;;;15.00;12.50;;;;;22.43;37.06;101560.13;5078423;27;45636;-71
2023/04/18 04:14:21;;;;;;;;;16.25;13.50;;;;;22.45;36.84;101563.56;5080861;27;45364;-71
2023/04/18 04:16:46;;;;;;;;;12.25;11.00;;;;;22.41;36.56;101560.22;5081062;27;45465;-70
2023/04/18 04:19:13;;;;;;;;;14.50;13.25;;;;;22.43;36.49;101562.78;5078204;27;63167;-71
2023/04/18 04:21:39;;;;;;;;;15.75;14.50;;;;;22.42;36.55;101558.44;5075794;27;45390;-71
2023/04/18 04:24:05;;;;;;;;;14.50;13.50;;;;;22.44;36.80;101560.03;5073959;28;47410;-71
2023/04/18 04:26:31;;;;;;;;;13.50;12.00;;;;;22.43;36.73;101557.47;5077726;28;45449;-71
2023/04/18 04:28:56;;;;;;;;;16.00;13.75;;;;;22.42;36.88;101558.44;5078147;27;45981;-70
2023/04/18 04:31:21;;;;;;;;;17.00;15.00;;;;;22.41;36.72;101551.38;5077316;27;55980;-70
2023/04/18 04:33:47;;;;;;;;;17.50;14.50;;;;;22.43;36.92;101560.13;5087929;27;62484;-71
2023/04/18 04:36:13;;;;;;;;;16.75;15.00;;;;;22.42;36.43;101561.94;5079732;27;45411;-71
2023/04/18 04:38:39;;;;;;;;;15.25;13.25;;;;;22.41;36.55;101554.88;5078894;27;46240;-71
2023/04/18 04:41:08;;;;;;;;;15.50;13.50;;;;;22.43;36.69;101560.13;5076790;27;45411;-71
2023/04/18 04:43:33;;;;;;;;;14.25;12.50;;;;;22.41;36.67;101554.03;5083586;27;47772;-71
2023/04/18 04:45:59;;;;;;;;;14.75;12.00;;;;;22.43;36.94;101557.47;5074598;27;45817;-71
2023/04/18 04:48:24;;;;;;;;;15.50;13.75;;;;;22.41;36.72;101554.03;5061620;27;47010;-71
2023/04/18 04:50:52;;;;;;;;;14.00;12.25;;;;;22.40;36.79;101554.97;5075583;28;45551;-71
2023/04/18 04:53:17;;;;;;;;;16.25;13.50;;;;;22.39;37.05;101559.47;5059003;27;45267;-71
2023/04/18 04:55:43;;;;;;;;;13.00;13.00;;;;;22.41;36.86;101562.03;5074626;27;45390;-72
2023/04/18 04:58:08;;;;;;;;;15.50;13.50;;;;;22.40;36.90;101561.19;5080619;27;45593;-71
2023/04/18 05:00:33;;;;;;;;;12.75;12.25;;;;;22.41;36.81;101567.38;5077745;27;74575;-71
2023/04/18 05:02:59;;;;;;;;;16.25;15.00;;;;;22.37;36.58;101562.22;5074441;28;60142;-71
2023/04/18 05:05:24;;;;;;;;;16.25;13.25;;;;;22.40;36.54;101560.31;5062560;28;46191;-71
2023/04/18 05:07:49;;;;;;;;;16.25;12.00;;;;;22.37;36.36;101567.56;5082620;27;70481;-71
2023/04/18 05:10:15;;;;;;;;;15.00;12.75;;;;;22.41;36.94;101564.72;5081772;27;45413;-71
2023/04/18 05:12:40;;;;;;;;;17.50;12.50;;;;;22.37;36.75;101564.91;5058807;28;45324;-71
2023/04/18 05:15:06;;;;;;;;;13.75;13.25;;;;;22.36;36.79;101557.00;5074919;27;51051;-71
2023/04/18 05:17:31;;;;;;;;;13.75;13.25;;;;;22.37;36.79;101562.22;5077863;28;47884;-71
2023/04/18 05:19:56;;;;;;;;;13.25;12.50;;;;;22.36;36.59;101560.53;5078467;27;70389;-71
2023/04/18 05:22:22;;;;;;;;;14.75;13.00;;;;;22.36;36.63;101552.53;5059258;28;50587;-71
2023/04/18 05:24:47;;;;;;;;;19.25;15.50;;;;;22.35;36.57;101552.63;5072849;28;45577;-71
2023/04/18 05:27:13;;;;;;;;;13.50;13.25;;;;;22.36;36.45;101557.88;5077380;27;46204;-71
2023/04/18 05:29:38;;;;;;;;;17.75;15.75;;;;;22.38;36.80;101557.75;5077233;27;45558;-71
2023/04/18 05:32:05;;;;;;;;;14.50;12.50;;;;;22.37;36.80;101559.56;5080912;27;45471;-71
2023/04/18 05:34:31;;;;;;;;;16.75;12.75;;;;;22.35;36.54;101550.81;5059887;28;45495;-71
2023/04/18 05:36:56;;;;;;;;;13.00;12.25;;;;;22.36;36.73;101562.31;5077499;27;45841;-71
2023/04/18 05:39:21;;;;;;;;;16.50;13.50;;;;;22.37;36.26;101556.91;5077593;27;56893;-72
2023/04/18 05:41:47;;;;;;;;;15.75;13.25;;;;;22.33;36.37;101560.72;5057242;28;45419;-71
2023/04/18 05:44:12;;;;;;;;;12.75;12.75;;;;;22.35;36.74;101569.47;5075888;27;63057;-70
2023/04/18 05:46:38;;;;;;;;;11.75;11.00;;;;;22.35;36.36;101568.63;5077158;27;45395;-80
2023/04/18 05:49:03;;;;;;;;;11.50;10.25;;;;;22.35;36.30;101568.63;5073096;27;68519;-76
2023/04/18 05:51:28;;;;;;;;;14.50;12.00;;;;;22.33;36.85;101562.53;5074359;27;45472;-73
2023/04/18 05:53:54;;;;;;;;;13.00;11.00;;;;;22.36;36.68;101573.88;5076682;27;45620;-73
2023/04/18 05:56:19;;;;;;;;;43.75;32.25;;;;;22.33;36.38;101566.06;5073568;27;46023;-76
2023/04/18 05:58:46;;;;;;;;;44.25;32.50;;;;;22.35;36.58;101571.28;5077809;27;45434;-75
2023/04/18 06:01:13;;;;;;;;;44.00;33.75;;;;;22.32;36.68;101567.00;5058921;28;45929;-77
2023/04/18 06:03:40;;;;;;;;;45.00;35.25;;;;;22.30;36.80;101576.06;5071305;28;45702;-80
2023/04/18 06:06:05;;;;;;;;;40.00;33.75;;;;;22.28;36.28;101570.81;5091981;27;46182;-76
2023/04/18 06:08:31;;;;;;;;;41.00;34.50;;;;;22.26;36.82;101571.84;5061283;27;45646;-78
2023/04/18 06:10:56;;;;;;;;;46.75;36.50;;;;;22.26;36.43;101575.38;5070680;28;60026;-77
2023/04/18 06:13:21;;;;;;;;;47.75;37.50;;;;;22.24;36.79;101574.63;5060155;27;45591;-77
2023/04/18 06:15:47;;;;;;;;;45.50;37.00;;;;;22.18;36.49;101566.97;5075457;28;46230;-76
2023/04/18 06:18:12;;;;;;;;;44.75;35.00;;;;;22.19;36.94;101569.56;5057029;27;59563;-77
2023/04/18 06:20:37;;;;;;;;;48.75;37.25;;;;;22.14;36.40;101578.81;5072715;27;56440;-78
2023/04/18 06:23:03;;;;;;;;;47.00;37.00;;;;;22.13;36.67;101569.06;5073949;28;45313;-76
2023/04/18 06:25:28;;;;;;;;;47.25;36.75;;;;;22.12;36.35;101576.22;5075899;27;65158;-74
2023/04/18 06:27:53;;;;;;;;;45.25;36.00;;;;;22.11;36.33;101565.66;5058679;27;73491;-71
2023/04/18 06:30:20;;;;;;;;;45.50;35.00;;;;;22.07;36.17;101575.66;5078260;27;45411;-71
2023/04/18 06:32:46;;;;;;;;;47.50;37.75;;;;;22.09;36.50;101586.22;5078801;27;45413;-77
2023/04/18 06:35:11;;;;;;;;;43.50;35.75;;;;;22.04;36.58;101570.50;5070684;27;48141;-71
2023/04/18 06:37:37;;;;;;;;;50.25;39.00;;;;;22.03;36.27;101567.94;5072169;27;68952;-68
2023/04/18 06:40:02;;;;;;;;;47.00;38.50;;;;;21.97;36.25;101563.84;5075396;27;45875;-70
2023/04/18 06:42:28;;;;;;;;;49.00;37.00;;;;;22.00;36.66;101569.84;5054347;27;45471;-71
2023/04/18 06:44:54;;;;;;;;;50.50;39.00;;;;;21.99;36.67;101567.25;5071695;27;47457;-70
2023/04/18 06:47:20;;;;;;;;;46.25;38.75;;;;;21.95;36.41;101561.25;5076325;27;45674;-71
2023/04/18 06:49:45;;;;;;;;;48.75;39.25;;;;;21.95;36.50;101557.75;5078852;27;48257;-72
2023/04/18 06:52:10;;;;;;;;;50.00;39.25;;;;;21.92;36.68;101558.81;5075081;28;45464;-70
2023/04/18 06:54:36;;;;;;;;;46.75;34.00;;;;;21.86;36.51;101553.84;5074983;27;45517;-71
2023/04/18 06:57:02;;;;;;;;;45.00;36.25;;;;;21.91;36.47;101562.41;5073094;27;69728;-70
2023/04/18 06:59:27;;;;;;;;;55.25;42.00;;;;;21.87;36.54;101555.56;5062054;28;45327;-70
2023/04/18 07:01:53;;;;;;;;;55.75;41.75;;;;;21.90;36.44;101570.50;5074740;28;70029;-70
2023/04/18 07:04:18;;;;;;;;;51.25;40.25;;;;;21.87;36.71;101557.34;5058074;28;46168;-66
2023/04/18 07:06:44;;;;;;;;;47.75;38.00;;;;;21.88;36.50;101565.25;5081339;27;45323;-67
2023/04/18 07:09:09;;;;;;;;;45.75;34.75;;;;;21.90;36.56;101574.06;5075661;27;45440;-67
2023/04/18 07:11:34;;;;;;;;;44.50;35.00;;;;;21.89;36.93;101561.66;5068945;28;66075;-67
2023/04/18 07:14:00;;;;;;;;;52.50;37.50;;;;;21.91;36.98;101575.75;5076242;27;45516;-66
2023/04/18 07:16:25;;;;;;;;;44.75;34.25;;;;;21.91;37.16;101567.75;5078015;27;68043;-68
2023/04/18 07:18:50;;;;;;;;;43.75;35.75;;;;;21.86;36.69;101574.31;5075089;27;45272;-68
2023/04/18 07:21:16;;;;;;;;;44.75;34.75;;;;;21.89;36.59;101572.31;5072846;28;60416;-68
2023/04/18 07:23:42;;;;;;;;;48.50;35.50;;;;;21.90;36.72;101575.84;5076326;27;46476;-68
2023/04/18 07:26:08;;;;;;;;;47.50;35.25;;;;;21.87;36.64;101568.03;5076201;27;45410;-68
2023/04/18 07:28:34;;;;;;;;;39.50;32.00;;;;;21.88;36.75;101564.41;5060847;27;45552;-68
2023/04/18 07:31:00;;;;;;;;;39.25;33.00;;;;;21.89;37.25;101569.66;5074029;27;45400;-68
2023/04/18 07:33:25;;;;;;;;;37.50;30.75;;;;;21.88;36.95;101575.91;5077939;27;46253;-68
2023/04/18 07:35:51;;;;;;;;;39.75;30.00;;;;;21.89;37.01;101569.66;5076657;27;49804;-68
2023/04/18 07:38:17;;;;;;;;;40.00;32.25;;;;;21.89;36.91;101577.66;5076319;27;45308;-68
2023/04/18 07:40:44;;;;;;;;;35.50;29.75;;;;;21.89;37.12;101566.16;5068622;28;71254;-68
2023/04/18 07:43:09;;;;;;;;;37.75;31.75;;;;;21.88;37.41;101564.41;5077105;28;45568;-68
2023/04/18 07:45:37;;;;;;;;;40.00;29.25;;;;;21.86;36.76;101561.00;5073749;27;47924;-68
2023/04/18 07:48:03;;;;;;;;;31.75;29.00;;;;;21.87;36.92;101557.34;5071397;27;45705;-68
2023/04/18 07:50:28;;;;;;;;;34.25;30.00;;;;;21.86;36.89;101553.84;5061168;28;45548;-68
2023/04/18 07:52:53;;;;;;;;;29.25;27.50;;;;;21.86;36.89;101553.84;5074673;28;49399;-68
2023/04/18 07:55:19;;;;;;;;;34.25;29.50;;;;;21.87;37.27;101560.03;5061719;28;58259;-68
2023/04/18 07:57:49;;;;;;;;;32.00;30.50;;;;;21.84;37.10;101558.41;5076442;27;45729;-68
2023/04/18 08:00:17;;;;;;;;;29.00;27.75;;;;;21.83;37.35;101559.34;5071948;27;45493;-68
2023/04/18 08:02:42;;;;;;;;;33.25;30.00;;;;;21.83;37.11;101547.84;5075278;28;46407;-68
2023/04/18 08:05:08;;;;;;;;;34.75;29.75;;;;;21.82;37.36;101549.66;5075252;27;46678;-68
2023/04/18 08:07:34;;;;;;;;;34.25;28.25;;;;;21.83;37.43;101547.84;5077645;28;45380;-68
2023/04/18 08:10:00;;;;;;;;;35.00;28.00;;;;;21.82;37.29;101549.66;5073824;27;45508;-68
2023/04/18 08:12:25;;;;;;;;;39.75;30.00;;;;;21.82;36.88;101544.34;5078147;27;45345;-68
2023/04/18 08:14:51;;;;;;;;;34.50;30.00;;;;;21.82;36.95;101546.16;5072916;27;45456;-68
2023/04/18 08:17:16;;;;;;;;;34.25;27.00;;;;;21.80;37.26;101544.44;5071470;27;65967;-68
2023/04/18 08:19:43;;;;;;;;;31.25;26.50;;;;;21.80;36.94;101544.44;5075877;27;66947;-68
2023/04/18 08:22:09;;;;;;;;;33.50;28.00;;;;;21.81;37.27;101542.63;5070974;27;45659;-68
2023/04/18 08:24:36;;;;;;;;;26.50;24.25;;;;;21.78;37.29;101538.34;5075883;27;46097;-68
2023/04/18 08:27:02;;;;;;;;;31.50;28.00;;;;;21.82;36.91;101549.66;5076997;27;45607;-68
2023/04/18 08:29:27;;;;;;;;;27.25;23.25;;;;;21.78;37.20;101538.34;5078209;27;45267;-68
2023/04/18 08:31:53;;;;;;;;;31.50;25.25;;;;;21.80;36.82;101538.25;5079383;28;45894;-68
2023/04/18 08:34:18;;;;;;;;;32.00;26.50;;;;;21.77;37.28;101538.44;5079714;27;63902;-68
2023/04/18 08:36:43;;;;;;;;;29.00;26.50;;;;;21.77;36.88;101533.94;5075135;28;64703;-68
2023/04/18 08:39:09;;;;;;;;;29.25;24.75;;;;;21.77;36.93;101531.28;5077579;27;64623;-68
2023/04/18 08:41:36;;;;;;;;;31.25;24.25;;;;;21.78;37.42;101533.00;5078057;27;46075;-68
2023/04/18 08:44:02;;;;;;;;;30.25;25.75;;;;;21.76;37.35;101528.72;5080327;27;45989;-68
2023/04/18 08:46:28;;;;;;;;;31.75;27.00;;;;;21.77;36.90;101533.09;5060339;28;45503;-68
2023/04/18 08:48:57;;;;;;;;;28.00;23.25;;;;;21.77;37.36;101539.28;5074698;27;45363;-68
2023/04/18 08:51:23;;;;;;;;;27.25;26.50;;;;;21.78;37.23;101534.84;5076776;28;47135;-68
2023/04/18 08:53:49;;;;;;;;;30.50;24.25;;;;;21.77;36.96;101531.28;5075028;27;45495;-68
2023/04/18 08:56:15;;;;;;;;;29.75;24.50;;;;;21.76;36.80;101528.72;5075638;27;45398;-68
2023/04/18 08:58:40;;;;;;;;;29.50;24.50;;;;;21.76;37.13;101532.25;5075095;27;45492;-68
2023/04/18 09:01:06;;;;;;;;;27.25;24.00;;;;;21.74;37.02;101525.28;5076201;27;46578;-68
2023/04/18 09:03:36;;;;;;;;;25.50;24.00;;;;;21.73;37.08;101526.25;5067116;27;45483;-68
2023/04/18 09:06:09;;;;;;;;;29.75;25.50;;;;;21.75;36.85;101532.34;5077126;27;45490;-68
2023/04/18 09:08:34;;;;;;;;;24.25;22.50;;;;;21.71;37.20;101513.03;5060240;27;45469;-68
2023/04/18 09:11:29;;;;;;;;;25.50;24.50;;;;;21.75;36.99;101519.88;5070559;28;45272;-68
2023/04/18 09:13:58;;;;;;;;;25.25;23.00;;;;;21.74;37.25;101520.84;5078724;28;45329;-68
2023/04/18 09:16:26;;;;;;;;;26.25;24.50;;;;;21.74;37.40;101522.63;5078310;27;45469;-67
2023/04/18 09:19:27;;;;;;;;;29.00;24.25;;;;;21.74;37.26;101512.84;5044333;28;45510;-68
2023/04/18 09:22:00;;;;;;;;;28.00;25.00;;;;;21.74;36.91;101526.16;5037035;28;46183;-69
2023/04/18 09:24:27;;;;;;;;;25.25;23.00;;;;;21.70;37.01;101500.66;5054604;28;45339;-68
2023/04/18 09:26:54;;;;;;;;;29.75;23.00;;;;;21.74;37.36;101511.97;5075034;27;45547;-68
2023/04/18 09:29:23;;;;;;;;;26.50;22.75;;;;;21.72;37.31;101489.91;5054164;28;45654;-68
2023/04/18 09:31:59;;;;;;;;;27.25;22.75;;;;;21.71;37.27;101494.38;5049804;28;47598;-68
2023/04/18 09:34:26;;;;;;;;;23.00;21.00;;;;;21.73;36.86;101494.28;5072788;27;45981;-68
2023/04/18 09:37:12;;;;;;;;;28.75;25.25;;;;;21.73;37.26;101500.47;5072184;27;45421;-68
2023/04/18 09:39:38;;;;;;;;;24.00;21.50;;;;;21.73;37.11;101492.47;5048085;28;45884;-69
2023/04/18 09:42:04;;;;;;;;;29.00;24.00;;;;;21.73;37.01;101484.47;5062261;28;48346;-68
2023/04/18 09:44:30;;;;;;;;;29.75;24.50;;;;;21.71;37.47;101482.84;5061302;28;45350;-68
2023/04/18 09:46:55;;;;;;;;;23.75;22.00;;;;;21.73;36.87;101497.81;5067043;28;45469;-68
2023/04/18 09:49:21;;;;;;;;;25.75;21.00;;;;;21.74;36.86;101490.66;5060854;27;45311;-68
2023/04/18 09:51:50;;;;;;;;;27.75;24.50;;;;;21.71;37.32;101477.53;5076553;27;46297;-68
2023/04/18 09:54:16;;;;;;;;;29.50;21.50;;;;;21.72;37.22;101482.75;5078366;27;45374;-68
2023/04/18 09:56:46;;;;;;;;;22.50;21.25;;;;;21.73;37.35;101484.47;5062209;28;45475;-68
2023/04/18 09:59:11;;;;;;;;;23.75;22.00;;;;;21.71;37.38;101474.84;5089790;27;45292;-68
2023/04/18 10:01:38;;;;;;;;;27.00;21.50;;;;;21.73;37.32;101471.16;5075661;28;45328;-68
2023/04/18 10:04:06;;;;;;;;;21.00;20.00;;;;;21.68;37.05;101456.41;5062344;27;45769;-68
2023/04/18 10:06:33;;;;;;;;;22.75;22.25;;;;;21.69;37.24;101466.97;5076348;27;45399;-68
2023/04/18 10:08:59;;;;;;;;;24.75;20.50;;;;;21.71;36.95;101472.19;5056137;28;45764;-68
2023/04/18 10:11:24;;;;;;;;;25.50;21.75;;;;;21.73;36.95;101473.81;5071660;27;46096;-68
2023/04/18 10:13:52;;;;;;;;;26.50;19.25;;;;;21.74;37.07;101458.69;5077196;27;45290;-68
2023/04/18 10:16:19;;;;;;;;;25.50;19.75;;;;;21.71;37.16;101465.06;5076937;27;45426;-68
2023/04/18 10:18:45;;;;;;;;;33.75;23.75;;;;;21.71;37.08;101461.53;5079161;28;45208;-68
2023/04/18 10:21:10;;;;;;;;;24.25;20.25;;;;;21.71;37.04;101456.19;5078036;27;45413;-68
2023/04/18 10:23:37;;;;;;;;;25.50;20.00;;;;;21.70;37.27;101451.84;5078978;27;45372;-68
2023/04/18 10:26:07;;;;;;;;;27.00;22.00;;;;;21.71;37.05;101443.75;5052662;28;45456;-68
2023/04/18 10:28:53;;;;;;;;;27.25;23.00;;;;;21.73;36.96;101454.31;5072342;27;45353;-68
2023/04/18 10:31:20;;;;;;;;;23.00;21.50;;;;;21.70;36.82;101435.88;5072830;28;46359;-68
2023/04/18 10:33:52;;;;;;;;;21.75;17.75;;;;;21.70;36.93;101434.03;5061599;28;45353;-68
2023/04/18 10:36:19;;;;;;;;;22.25;19.75;;;;;21.70;37.40;101434.03;5056176;28;45476;-68
2023/04/18 10:38:50;;;;;;;;;21.25;16.75;;;;;21.71;37.35;101430.44;5087632;27;45404;-68
2023/04/18 10:41:18;;;;;;;;;22.75;18.25;;;;;21.73;36.86;101427.69;5053952;28;47038;-68
2023/04/18 10:44:22;;;;;;;;;25.25;23.25;;;;;21.73;36.92;101433.00;5071675;28;45312;-68
2023/04/18 10:46:50;;;;;;;;;26.75;19.75;;;;;21.72;37.37;101429.47;5035508;28;45578;-68
2023/04/18 10:49:26;;;;;;;;;21.75;18.75;;;;;21.70;36.89;101419.88;5056111;28;45411;-68
2023/04/18 10:51:57;;;;;;;;;25.25;22.25;;;;;21.72;36.93;101424.16;5055382;28;45475;-68
2023/04/18 10:54:37;;;;;;;;;20.25;18.00;;;;;21.72;36.93;101416.16;5060403;27;46086;-68
2023/04/18 10:57:04;;;;;;;;;26.50;19.25;;;;;21.70;37.13;101415.41;5078342;27;45515;-68
2023/04/18 10:59:35;;;;;;;;;25.00;21.00;;;;;21.71;37.39;101408.25;5054421;28;45358;-68
2023/04/18 11:02:04;;;;;;;;;21.50;19.75;;;;;21.73;36.80;101403.72;5077923;27;46387;-68
2023/04/18 11:04:29;;;;;;;;;25.50;19.50;;;;;21.70;37.18;101410.06;5074889;28;46022;-68
2023/04/18 11:06:56;;;;;;;;;22.75;19.00;;;;;21.71;37.34;101411.78;5078756;27;45295;-68